Time;durP1;ratioP1;P1;durP2;ratioP2;P2;SDS_P1;SDS_P2;PMS_P1;PMS_P2;Temp;Humidity;BMP_temperature;BMP_pressure;BME280_temperature;BME280_humidity;BME280_pressure;Samples;Min_cycle;Max_cycle;Signal;HPM_P1;HPM_P2
2022/11/27 00:01:33;;;;;;;3.00;1.60;;;;;;;5.16;76.74;100027.08;24495;1331;3025855;-66
2022/11/27 00:04:03;;;;;;;3.80;2.00;;;;;;;4.96;77.56;100029.06;24543;1336;3027098;-70
2022/11/27 00:06:34;;;;;;;2.30;1.60;;;;;;;4.91;78.28;100029.02;24495;1334;3026047;-69
2022/11/27 00:09:06;;;;;;;2.70;1.30;;;;;;;5.42;76.85;100024.59;24473;1340;3028187;-68
2022/11/27 00:11:38;;;;;;;1.70;1.20;;;;;;;6.13;75.25;100024.27;24501;1323;3026890;-67
2022/11/27 00:14:14;;;;;;;2.30;1.40;;;;;;;6.44;74.09;100023.05;24532;1333;3025469;-66
2022/11/27 00:16:43;;;;;;;2.20;1.40;;;;;;;6.22;73.01;100027.45;24484;1337;3055480;-61
2022/11/27 00:19:12;;;;;;;2.40;1.50;;;;;;;5.89;73.41;100024.33;24549;1323;3028341;-69
2022/11/27 00:21:41;;;;;;;2.70;1.50;;;;;;;5.81;74.14;100026.16;24474;1333;3049409;-72
2022/11/27 00:24:10;;;;;;;2.90;1.70;;;;;;;5.58;74.72;100029.64;24512;1329;3026139;-70
2022/11/27 00:26:40;;;;;;;1.90;1.50;;;;;;;5.47;75.56;100032.41;24388;1333;3067318;-72
2022/11/27 00:29:09;;;;;;;2.30;1.40;;;;;;;5.47;75.71;100031.89;24538;1323;3029080;-68
2022/11/27 00:31:39;;;;;;;3.00;1.50;;;;;;;5.42;75.43;100034.30;24546;1342;3050045;-66
2022/11/27 00:34:09;;;;;;;2.70;1.60;;;;;;;5.23;75.77;100032.60;24593;1332;3027370;-71
2022/11/27 00:36:38;;;;;;;2.80;1.80;;;;;;;5.14;76.59;100034.95;24544;1330;3028796;-64
2022/11/27 00:39:07;;;;;;;3.00;1.40;;;;;;;5.20;76.72;100030.95;24577;1330;3027975;-72
2022/11/27 00:41:36;;;;;;;2.90;1.90;;;;;;;5.12;76.79;100032.23;24520;1323;3069531;-71
2022/11/27 00:44:06;;;;;;;1.90;1.00;;;;;;;5.08;77.12;100034.44;24530;1325;3025906;-65
2022/11/27 00:46:36;;;;;;;1.40;0.70;;;;;;;5.57;76.06;100030.89;24565;1323;3028567;-71
2022/11/27 00:49:05;;;;;;;1.50;0.90;;;;;;;6.20;74.31;100026.31;24574;1323;3028872;-67
2022/11/27 00:51:34;;;;;;;2.00;1.10;;;;;;;6.44;73.35;100026.69;24465;1340;3050028;-66
2022/11/27 00:54:03;;;;;;;4.30;1.90;;;;;;;6.37;72.93;100028.67;24530;1323;3028294;-69
2022/11/27 00:56:35;;;;;;;2.80;1.60;;;;;;;6.15;72.81;100028.39;24518;1332;3068761;-71
2022/11/27 00:59:05;;;;;;;3.80;1.90;;;;;;;5.76;73.68;100028.92;24556;1338;3026923;-65
2022/11/27 01:01:40;;;;;;;3.80;1.90;;;;;;;5.61;74.30;100029.73;24536;1333;3026983;-65
2022/11/27 01:04:12;;;;;;;4.10;1.80;;;;;;;5.58;74.92;100024.78;24512;1333;3052585;-71
2022/11/27 01:06:42;;;;;;;3.20;1.70;;;;;;;5.56;74.65;100022.58;24500;1329;3027189;-72
2022/11/27 01:09:11;;;;;;;4.90;2.40;;;;;;;5.47;74.56;100019.05;24522;1330;3026586;-75
2022/11/27 01:11:41;;;;;;;3.80;2.10;;;;;;;5.33;75.26;100021.05;24553;1334;3025971;-69
2022/11/27 01:14:15;;;;;;;3.80;2.00;;;;;;;5.19;75.62;100024.92;24502;1340;3026500;-73
2022/11/27 01:16:44;;;;;;;4.00;2.00;;;;;;;5.10;76.28;100026.92;24516;1323;3068839;-70
2022/11/27 01:19:13;;;;;;;4.20;2.50;;;;;;;5.01;76.80;100029.26;24469;1329;3026192;-70
2022/11/27 01:21:42;;;;;;;4.80;2.50;;;;;;;4.90;77.31;100029.73;24520;1333;3049825;-69
2022/11/27 01:24:12;;;;;;;2.50;1.50;;;;;;;4.94;77.71;100031.20;24470;1333;3026218;-66
2022/11/27 01:26:42;;;;;;;4.30;1.50;;;;;;;5.51;76.43;100024.98;24515;1332;3051432;-72
2022/11/27 01:29:11;;;;;;;3.00;1.60;;;;;;;6.12;73.76;100017.68;24490;1323;3028939;-69
2022/11/27 01:31:40;;;;;;;2.50;1.50;;;;;;;6.32;73.18;100019.29;24529;1331;3028669;-73
2022/11/27 01:34:13;;;;;;;3.90;2.20;;;;;;;6.23;72.66;100016.46;24457;1334;3051896;-68
2022/11/27 01:36:42;;;;;;;3.60;1.80;;;;;;;6.03;72.67;100017.46;24547;1332;3026167;-63
2022/11/27 01:39:16;;;;;;;3.50;1.80;;;;;;;5.83;72.96;100020.16;24492;1332;3025698;-74
2022/11/27 01:41:46;;;;;;;4.20;2.10;;;;;;;5.68;73.75;100022.55;24491;1331;3053082;-67
2022/11/27 01:44:24;;;;;;;4.60;2.20;;;;;;;5.60;73.97;100024.56;24525;1336;3027930;-70
2022/11/27 01:47:02;;;;;;;4.30;2.20;;;;;;;5.45;74.25;100022.73;24502;1330;3069299;-69
2022/11/27 01:49:38;;;;;;;4.40;2.20;;;;;;;5.29;74.63;100028.08;24531;1329;3050552;-66
2022/11/27 01:52:08;;;;;;;4.90;2.40;;;;;;;5.14;75.43;100027.14;24509;1331;3056043;-67
2022/11/27 01:54:44;;;;;;;4.70;1.90;;;;;;;5.07;76.07;100030.83;24521;1336;3026609;-70
2022/11/27 01:57:27;;;;;;;2.70;1.50;;;;;;;5.05;76.19;100036.43;24566;1333;3052887;-65
2022/11/27 01:59:57;;;;;;;3.80;1.80;;;;;;;5.04;76.34;100038.89;24512;1352;3051708;-74
2022/11/27 02:02:29;;;;;;;3.40;1.80;;;;;;;5.05;76.27;100038.52;24541;1331;3026517;-69
2022/11/27 02:05:01;;;;;;;2.40;1.70;;;;;;;5.02;76.41;100037.05;24562;1334;3025094;-69
2022/11/27 02:07:30;;;;;;;2.60;1.40;;;;;;;5.55;75.11;100033.91;24454;1333;3025765;-68
2022/11/27 02:09:59;;;;;;;2.50;1.30;;;;;;;6.07;73.35;100029.16;24484;1331;3051800;-65
2022/11/27 02:12:52;;;;;;;3.50;1.70;;;;;;;6.23;72.43;100031.58;24513;1329;3025746;-68
2022/11/27 02:15:26;;;;;;;2.20;1.50;;;;;;;6.19;72.67;100031.03;24531;1332;3051420;-64
2022/11/27 02:18:07;;;;;;;3.70;1.90;;;;;;;6.00;72.92;100033.04;24486;1340;3053218;-73
2022/11/27 02:20:45;;;;;;;2.70;1.60;;;;;;;5.70;72.99;100037.27;24561;1334;3049696;-71
2022/11/27 02:23:16;;;;;;;3.50;1.60;;;;;;;5.56;74.06;100039.80;24467;1339;3070300;-70
2022/11/27 02:26:17;;;;;;;2.30;1.40;;;;;;;5.47;74.13;100039.55;24525;1331;3026237;-69
2022/11/27 02:29:06;;;;;;;3.10;1.60;;;;;;;5.27;74.93;100046.23;24531;1333;3056720;-65
2022/11/27 02:32:01;;;;;;;2.80;1.60;;;;;;;5.28;75.27;100049.14;24504;1336;3051264;-65
2022/11/27 02:34:45;;;;;;;4.50;1.60;;;;;;;5.18;75.21;100051.88;24518;1334;3053294;-73
2022/11/27 02:37:33;;;;;;;;;;;;;;;5.10;75.53;100057.13;24508;1336;3051674;-65
2022/11/27 02:40:19;;;;;;;3.30;1.40;;;;;;;4.88;76.57;100057.73;24501;1336;3053033;-68
2022/11/27 02:42:49;;;;;;;2.20;1.70;;;;;;;4.86;76.84;100056.39;24517;1334;3048580;-69
2022/11/27 02:45:25;;;;;;;4.10;1.90;;;;;;;4.79;77.33;100056.79;24503;1336;3026090;-68
2022/11/27 02:47:54;;;;;;;3.50;1.50;;;;;;;4.86;77.51;100052.77;24552;1336;3050416;-64
2022/11/27 02:50:24;;;;;;;1.70;0.90;;;;;;;5.42;75.91;100051.33;24496;1329;3026595;-69
2022/11/27 02:52:56;;;;;;;3.30;1.40;;;;;;;5.97;73.70;100050.86;24498;1336;3068251;-70
2022/11/27 02:55:27;;;;;;;3.60;1.60;;;;;;;6.19;73.01;100056.77;24490;1336;3026047;-65
2022/11/27 02:57:56;;;;;;;2.70;1.70;;;;;;;5.98;72.58;100058.47;24528;1325;3026381;-70
2022/11/27 03:00:25;;;;;;;2.60;1.60;;;;;;;5.88;73.24;100063.67;24519;1325;3028526;-61
2022/11/27 03:02:57;;;;;;;2.00;1.30;;;;;;;5.68;73.42;100063.05;24525;1331;3049656;-70
2022/11/27 03:05:27;;;;;;;2.10;1.30;;;;;;;5.54;74.00;100063.66;24497;1339;3026570;-70
2022/11/27 03:08:34;;;;;;;3.40;1.90;;;;;;;5.45;74.38;100060.98;24574;1324;3026581;-68
2022/11/27 03:11:06;;;;;;;2.50;1.30;;;;;;;5.29;75.20;100060.23;24556;1339;3053897;-67
2022/11/27 03:13:38;;;;;;;2.70;1.40;;;;;;;5.18;75.84;100060.71;24516;1325;3025278;-72
2022/11/27 03:16:40;;;;;;;3.30;1.40;;;;;;;5.13;76.18;100064.50;24623;1336;3026612;-67
2022/11/27 03:19:09;;;;;;;4.10;2.20;;;;;;;5.05;76.54;100065.95;24564;1336;3050151;-66
2022/11/27 03:21:39;;;;;;;3.50;1.80;;;;;;;4.97;76.79;100063.73;24611;1329;3028198;-62
2022/11/27 03:24:09;;;;;;;3.50;1.80;;;;;;;4.93;77.01;100065.60;24703;1336;3052856;-67
2022/11/27 03:26:39;;;;;;;3.10;1.50;;;;;;;4.89;77.56;100069.88;24688;1331;3026690;-65
2022/11/27 03:29:14;;;;;;;2.80;1.10;;;;;;;5.42;76.59;100063.30;24640;1336;3025974;-63
2022/11/27 03:31:43;;;;;;;3.50;1.50;;;;;;;5.98;74.31;100060.20;24755;1336;3053286;-64
2022/11/27 03:34:12;;;;;;;3.30;1.90;;;;;;;6.20;73.39;100061.27;24687;1329;3027359;-67
2022/11/27 03:36:41;;;;;;;3.70;2.00;;;;;;;6.22;73.72;100062.59;24633;1330;3026257;-69
2022/11/27 03:39:10;;;;;;;3.00;1.80;;;;;;;6.12;73.22;100062.38;24707;1329;3026571;-68
2022/11/27 03:41:42;;;;;;;2.90;1.70;;;;;;;5.77;73.19;100071.45;24491;1334;3049107;-66
2022/11/27 03:44:30;;;;;;;2.70;1.80;;;;;;;5.54;74.19;100069.39;24486;1328;3028864;-68
2022/11/27 03:47:24;;;;;;;2.50;1.70;;;;;;;5.42;75.14;100071.32;24475;1340;3049877;-65
2022/11/27 03:49:56;;;;;;;;;;;;;;;5.27;76.03;100073.66;24477;1336;3056837;-72
2022/11/27 03:52:34;;;;;;;2.70;1.50;;;;;;;5.18;76.10;100077.05;24487;1331;3026732;-72
2022/11/27 03:55:05;;;;;;;3.30;1.70;;;;;;;5.13;76.30;100075.98;24511;1336;3055742;-71
2022/11/27 03:57:53;;;;;;;4.30;1.80;;;;;;;5.08;76.34;100073.86;24527;1325;3029012;-68
2022/11/27 04:00:22;;;;;;;3.10;1.50;;;;;;;5.02;76.61;100074.35;24505;1336;3052605;-70
2022/11/27 04:02:51;;;;;;;3.10;1.70;;;;;;;5.00;76.44;100066.61;24456;1329;3026225;-71
2022/11/27 04:05:20;;;;;;;3.30;1.40;;;;;;;5.00;76.24;100063.84;24591;1331;3051912;-68
2022/11/27 04:07:50;;;;;;;1.60;0.90;;;;;;;4.95;76.43;100067.10;24503;1337;3028500;-75
2022/11/27 04:10:19;;;;;;;2.70;1.00;;;;;;;5.43;75.48;100065.03;24483;1337;3026827;-67
2022/11/27 04:12:48;;;;;;;3.90;1.20;;;;;;;5.91;73.66;100061.32;24507;1332;3026032;-69
2022/11/27 04:15:18;;;;;;;2.30;1.30;;;;;;;5.99;73.51;100064.55;24493;1336;3052293;-66
2022/11/27 04:17:47;;;;;;;3.10;1.10;;;;;;;5.97;73.64;100067.91;24481;1344;3029134;-64
2022/11/27 04:20:16;;;;;;;2.60;1.20;;;;;;;5.92;73.70;100067.88;24544;1324;3026536;-73
2022/11/27 04:22:45;;;;;;;3.50;1.10;;;;;;;5.67;73.79;100065.17;24495;1329;3051599;-74
2022/11/27 04:25:14;;;;;;;3.00;1.30;;;;;;;5.57;74.68;100067.92;24513;1322;3026095;-67
2022/11/27 04:27:44;;;;;;;2.30;1.20;;;;;;;5.47;74.91;100071.87;24457;1336;3051660;-68
2022/11/27 04:30:13;;;;;;;3.40;1.30;;;;;;;5.41;75.05;100075.86;24539;1329;3028850;-66
2022/11/27 04:32:42;;;;;;;2.80;1.40;;;;;;;5.34;75.07;100073.12;24488;1325;3052498;-68
2022/11/27 04:35:11;;;;;;;2.60;1.30;;;;;;;5.23;75.36;100076.55;24518;1331;3027558;-64
2022/11/27 04:37:40;;;;;;;2.80;1.40;;;;;;;5.09;75.91;100075.39;24516;1328;3051602;-72
2022/11/27 04:40:10;;;;;;;2.70;1.20;;;;;;;5.07;76.16;100075.08;24527;1323;3028497;-68
2022/11/27 04:42:38;;;;;;;2.80;1.20;;;;;;;5.05;76.19;100074.80;24522;1331;3055613;-71
2022/11/27 04:45:08;;;;;;;3.30;1.50;;;;;;;5.03;76.21;100071.39;24482;1333;3027451;-64
2022/11/27 04:47:38;;;;;;;2.80;1.00;;;;;;;5.02;76.48;100071.77;24541;1333;3050230;-73
2022/11/27 04:50:08;;;;;;;1.20;0.70;;;;;;;5.56;75.37;100063.59;24481;1333;3025925;-73
2022/11/27 04:52:37;;;;;;;2.20;1.20;;;;;;;6.18;73.32;100063.23;24531;1331;3068831;-68
2022/11/27 04:55:06;;;;;;;2.80;1.20;;;;;;;6.31;72.67;100066.81;24495;1323;3028219;-63
2022/11/27 04:57:35;;;;;;;3.20;1.40;;;;;;;6.14;72.64;100065.28;24481;1329;3049006;-74
2022/11/27 05:00:05;;;;;;;2.10;1.00;;;;;;;5.94;73.37;100070.07;24526;1322;3028664;-61
2022/11/27 05:02:35;;;;;;;2.50;1.30;;;;;;;5.86;74.09;100068.96;24539;1331;3052432;-68
2022/11/27 05:05:04;;;;;;;2.80;1.20;;;;;;;5.78;74.09;100067.64;24510;1338;3028347;-73
2022/11/27 05:07:33;;;;;;;2.90;1.30;;;;;;;5.67;74.26;100069.17;24481;1333;3050893;-67
2022/11/27 05:10:04;;;;;;;2.10;1.20;;;;;;;5.43;74.88;100078.23;24557;1315;3026638;-69
2022/11/27 05:12:58;;;;;;;2.20;1.40;;;;;;;5.29;75.91;100081.42;24516;1329;3053731;-68
2022/11/27 05:15:27;;;;;;;2.80;1.40;;;;;;;5.21;76.19;100082.86;24546;1322;3027337;-69
2022/11/27 05:17:56;;;;;;;2.80;1.50;;;;;;;5.17;76.57;100085.09;24505;1329;3051594;-72
2022/11/27 05:20:25;;;;;;;4.30;1.50;;;;;;;5.11;76.71;100090.62;24521;1323;3028070;-70
2022/11/27 05:22:54;;;;;;;3.30;1.60;;;;;;;5.05;76.94;100089.75;24599;1324;3055912;-72
2022/11/27 05:25:23;;;;;;;3.90;1.20;;;;;;;5.00;77.35;100089.36;24484;1329;3027295;-64
2022/11/27 05:27:52;;;;;;;2.60;0.80;;;;;;;5.47;76.02;100088.87;24484;1331;3050409;-69
2022/11/27 05:30:23;;;;;;;2.20;1.00;;;;;;;6.06;73.86;100091.80;24468;1333;3028600;-70
2022/11/27 05:32:52;;;;;;;4.00;1.40;;;;;;;6.32;73.53;100094.45;24510;1329;3028791;-72
2022/11/27 05:35:21;;;;;;;2.90;1.70;;;;;;;6.09;73.19;100099.02;24499;1324;3049269;-66
2022/11/27 05:38:16;;;;;;;4.00;1.40;;;;;;;5.91;74.05;100102.18;24486;1329;3056990;-73
2022/11/27 05:40:48;;;;;;;3.90;1.80;;;;;;;5.69;74.55;100110.15;24537;1329;3029321;-74
2022/11/27 05:43:17;;;;;;;5.30;1.80;;;;;;;5.51;75.21;100111.55;24490;1336;3027996;-66
2022/11/27 05:45:47;;;;;;;3.20;1.40;;;;;;;5.37;75.90;100111.59;24534;1325;3028846;-67
2022/11/27 05:48:17;;;;;;;4.60;1.70;;;;;;;5.21;76.28;100116.72;24494;1324;3049757;-65
2022/11/27 05:50:47;;;;;;;4.30;1.80;;;;;;;5.14;76.95;100110.84;24499;1338;3026221;-67
2022/11/27 05:53:16;;;;;;;2.60;1.60;;;;;;;5.02;77.52;100115.52;24511;1332;3028788;-65
2022/11/27 05:55:45;;;;;;;3.30;1.70;;;;;;;4.99;78.00;100117.16;24540;1328;3051678;-65
2022/11/27 05:58:14;;;;;;;3.00;1.70;;;;;;;5.03;77.95;100123.31;24497;1321;3028137;-68
2022/11/27 06:00:45;;;;;;;2.70;1.30;;;;;;;4.99;78.31;100123.60;24517;1333;3057613;-69
2022/11/27 06:03:14;;;;;;;1.80;1.10;;;;;;;5.48;76.81;100119.77;24477;1333;3028177;-72
2022/11/27 06:06:09;;;;;;;;;;;;;;;6.13;74.28;100117.33;24532;1333;3053547;-67
2022/11/27 06:08:41;;;;;;;2.10;1.20;;;;;;;6.17;73.98;100126.05;24519;1332;3026296;-69
2022/11/27 06:11:13;;;;;;;3.00;1.70;;;;;;;6.07;73.82;100124.98;24540;1334;3025696;-70
2022/11/27 06:13:42;;;;;;;2.20;1.30;;;;;;;5.88;74.53;100127.98;24471;1334;3028697;-68
2022/11/27 06:16:19;;;;;;;2.50;1.40;;;;;;;5.78;75.10;100132.64;24481;1331;3028265;-63
2022/11/27 06:18:49;;;;;;;2.90;1.20;;;;;;;5.76;75.38;100135.31;24470;1336;3049751;-75
2022/11/27 06:21:19;;;;;;;4.00;1.60;;;;;;;5.71;75.23;100131.11;24573;1324;3025941;-68
2022/11/27 06:24:13;;;;;;;3.40;1.70;;;;;;;5.57;75.23;100132.21;24543;1323;3052139;-70
2022/11/27 06:27:07;;;;;;;2.60;1.60;;;;;;;5.41;76.11;100130.06;24496;1333;3054066;-71
2022/11/27 06:29:36;;;;;;;2.40;1.60;;;;;;;5.34;76.59;100131.48;24507;1323;3028317;-71
2022/11/27 06:32:05;;;;;;;4.20;1.50;;;;;;;5.27;76.74;100132.22;24489;1323;3051332;-66
2022/11/27 06:34:35;;;;;;;3.80;1.80;;;;;;;5.25;76.69;100136.09;24517;1328;3026546;-68
2022/11/27 06:37:04;;;;;;;2.70;1.50;;;;;;;5.14;77.13;100142.80;24486;1331;3028777;-65
2022/11/27 06:39:33;;;;;;;0.90;0.70;;;;;;;5.21;77.44;100149.75;24529;1334;3051752;-67
2022/11/27 06:42:02;;;;;;;2.10;0.80;;;;;;;5.62;75.97;100148.03;24479;1323;3028222;-62
2022/11/27 06:44:32;;;;;;;1.70;1.00;;;;;;;6.16;73.89;100153.08;24513;1333;3057593;-67
2022/11/27 06:47:01;;;;;;;2.70;1.30;;;;;;;6.21;73.58;100152.73;24493;1323;3028107;-64
2022/11/27 06:49:30;;;;;;;3.10;1.50;;;;;;;6.13;73.88;100151.23;24526;1329;3049899;-74
2022/11/27 06:51:59;;;;;;;2.90;1.30;;;;;;;6.02;74.33;100151.40;24511;1323;3028290;-72
2022/11/27 06:54:28;;;;;;;2.50;1.50;;;;;;;5.86;74.49;100156.90;24567;1333;3068393;-68
2022/11/27 06:56:57;;;;;;;3.20;1.70;;;;;;;5.78;74.98;100157.51;24493;1326;3026497;-66
2022/11/27 06:59:28;;;;;;;3.00;1.40;;;;;;;5.69;75.38;100167.48;24504;1331;3048967;-72
2022/11/27 07:01:56;;;;;;;2.00;1.40;;;;;;;5.61;75.52;100168.06;24529;1332;3025941;-64
2022/11/27 07:04:25;;;;;;;2.20;1.10;;;;;;;5.50;76.02;100170.30;24481;1331;3052028;-64
2022/11/27 07:06:54;;;;;;;3.20;1.50;;;;;;;5.47;76.43;100172.98;24503;1326;3025649;-71
2022/11/27 07:09:24;;;;;;;2.60;1.20;;;;;;;5.42;76.48;100173.13;24466;1323;3051509;-65
2022/11/27 07:11:56;;;;;;;6.30;1.40;;;;;;;5.39;76.57;100176.69;24514;1332;3028775;-67
2022/11/27 07:14:26;;;;;;;3.30;1.40;;;;;;;5.31;76.88;100181.59;24474;1329;3028453;-70
2022/11/27 07:16:58;;;;;;;3.50;1.60;;;;;;;5.24;77.50;100182.14;24509;1329;3026585;-72
2022/11/27 07:19:27;;;;;;;2.10;1.20;;;;;;;5.16;77.91;100183.92;24503;1323;3026405;-72
2022/11/27 07:21:56;;;;;;;1.20;0.80;;;;;;;5.69;76.67;100180.34;24511;1319;3050308;-64
2022/11/27 07:24:25;;;;;;;2.30;1.40;;;;;;;6.30;74.28;100179.42;24503;1323;3028480;-70
2022/11/27 07:26:54;;;;;;;2.50;1.40;;;;;;;6.44;73.77;100176.71;24500;1324;3052611;-69
2022/11/27 07:29:23;;;;;;;3.80;1.50;;;;;;;6.31;73.62;100176.77;24498;1329;3026168;-64
2022/11/27 07:31:52;;;;;;;2.10;1.30;;;;;;;6.12;74.33;100175.29;24535;1326;3051672;-67
2022/11/27 07:34:21;;;;;;;2.90;1.90;;;;;;;5.95;74.94;100180.66;24490;1331;3026121;-70
2022/11/27 07:36:51;;;;;;;2.40;1.30;;;;;;;5.85;75.33;100183.19;24551;1329;3053762;-70
2022/11/27 07:39:20;;;;;;;4.00;1.90;;;;;;;5.75;75.55;100189.22;24498;1338;3028290;-72
2022/11/27 07:41:50;;;;;;;2.60;1.40;;;;;;;5.70;75.98;100187.80;24498;1333;3028021;-71
2022/11/27 07:44:22;;;;;;;2.90;1.60;;;;;;;5.61;76.25;100192.41;24536;1331;3051047;-64
2022/11/27 07:46:56;;;;;;;3.00;1.50;;;;;;;5.57;76.71;100191.98;24476;1324;3029176;-72
2022/11/27 07:49:25;;;;;;;2.90;1.20;;;;;;;5.51;76.85;100191.63;24527;1330;3025998;-69
2022/11/27 11:28:15;;;;;;;8.00;2.50;;;;;;;4.73;83.55;100172.33;30726;1330;3013388;-66
2022/11/27 11:31:01;;;;;;;3.60;1.90;;;;;;;5.65;80.63;100163.95;24498;1326;3067326;-69
2022/11/27 11:33:58;;;;;;;4.70;2.80;;;;;;;6.48;76.98;100163.89;24503;1343;3051135;-71
2022/11/27 11:36:27;;;;;;;4.30;2.40;;;;;;;6.58;75.66;100164.08;24462;1333;3058459;-66
2022/11/27 11:38:56;;;;;;;3.60;2.30;;;;;;;6.48;75.89;100164.59;24506;1326;3027668;-70
2022/11/27 11:41:36;;;;;;;3.60;2.30;;;;;;;6.33;75.76;100169.92;23858;1331;4337119;-68
2022/11/27 11:44:19;;;;;;;3.50;2.40;;;;;;;6.09;76.19;100172.22;24566;1325;3050312;-67
2022/11/27 11:46:52;;;;;;;5.80;2.60;;;;;;;5.95;77.43;100177.52;24482;1332;3069740;-66
2022/11/27 11:49:25;;;;;;;4.70;2.00;;;;;;;5.87;77.54;100181.38;24565;1331;3050719;-72
2022/11/27 11:52:03;;;;;;;3.20;2.00;;;;;;;5.74;77.64;100178.99;24533;1324;3026057;-66
2022/11/27 11:54:51;;;;;;;2.70;1.60;;;;;;;5.67;78.25;100187.18;24508;1324;3051807;-72
2022/11/27 11:57:46;;;;;;;2.40;1.20;;;;;;;6.36;76.70;100184.98;24519;1332;3053457;-68
2022/11/27 12:00:22;;;;;;;3.10;1.50;;;;;;;6.82;74.19;100183.15;24541;1324;3053394;-66
2022/11/27 12:03:13;;;;;;;3.20;1.80;;;;;;;6.85;73.75;100181.10;24520;1323;3051436;-70
2022/11/27 12:06:11;;;;;;;3.50;1.70;;;;;;;6.69;73.88;100175.73;24570;1337;3048762;-69
2022/11/27 12:08:42;;;;;;;3.60;1.80;;;;;;;6.51;74.44;100180.66;24520;1331;3070054;-68
2022/11/27 12:11:18;;;;;;;2.80;2.00;;;;;;;6.40;74.64;100184.67;24500;1333;3028254;-68
2022/11/27 12:13:51;;;;;;;3.90;2.20;;;;;;;6.24;74.91;100189.87;24532;1337;3057248;-68
2022/11/27 12:16:39;;;;;;;3.30;1.90;;;;;;;6.11;74.87;100190.98;24499;1324;3027980;-68
2022/11/27 12:19:17;;;;;;;3.20;2.10;;;;;;;5.95;75.78;100192.81;24525;1331;3053410;-64
2022/11/27 12:21:55;;;;;;;4.50;2.40;;;;;;;5.93;76.21;100192.00;24522;1325;3050942;-71
2022/11/27 12:25:01;;;;;;;3.80;2.50;;;;;;;5.87;76.53;100196.18;24543;1331;3052515;-70
2022/11/27 12:28:02;;;;;;;4.00;2.50;;;;;;;5.68;77.13;100198.47;24512;1337;3049664;-69
2022/11/27 12:30:53;;;;;;;2.00;1.50;;;;;;;5.66;77.44;100203.72;24511;1324;3068487;-67
2022/11/27 12:33:35;;;;;;;2.90;1.70;;;;;;;6.44;75.43;100196.02;24516;1323;3049761;-68
2022/11/27 12:36:30;;;;;;;2.50;1.80;;;;;;;6.93;73.42;100196.17;24519;1333;3056700;-67
2022/11/27 12:39:18;;;;;;;4.50;2.50;;;;;;;6.86;72.84;100201.63;24492;1331;3053254;-65
2022/11/27 12:42:02;;;;;;;7.30;4.10;;;;;;;6.68;73.68;100204.85;24460;1331;3053073;-71
2022/11/27 12:45:02;;;;;;;6.60;3.60;;;;;;;6.49;74.20;100207.02;24459;1331;3051058;-70
2022/11/27 12:47:35;;;;;;;7.80;3.60;;;;;;;6.30;75.13;100207.96;24534;1331;3052067;-74
2022/11/27 12:50:22;;;;;;;6.00;3.50;;;;;;;6.17;75.71;100206.09;24527;1329;3029233;-73
2022/11/27 12:53:21;;;;;;;7.00;3.80;;;;;;;5.97;76.93;100210.16;24452;1324;3069138;-73
2022/11/27 12:56:05;;;;;;;5.60;3.50;;;;;;;5.90;77.29;100216.42;24474;1324;3050618;-65
2022/11/27 12:58:38;;;;;;;6.10;3.20;;;;;;;5.81;77.43;100222.45;24492;1331;3056186;-71
2022/11/27 13:01:16;;;;;;;5.70;3.60;;;;;;;5.77;77.29;100221.66;24496;1323;3025973;-68
2022/11/27 13:04:00;;;;;;;7.30;3.60;;;;;;;5.66;76.91;100219.38;24540;1323;3052842;-71
2022/11/27 13:06:31;;;;;;;6.50;3.20;;;;;;;5.62;77.16;100218.09;24484;1331;3050414;-71
2022/11/27 13:09:07;;;;;;;4.20;2.00;;;;;;;5.58;77.26;100220.63;24535;1331;3025945;-72
2022/11/27 13:11:39;;;;;;;3.10;1.70;;;;;;;6.10;75.84;100221.07;24442;1334;3050020;-67
2022/11/27 13:14:14;;;;;;;5.90;2.30;;;;;;;6.64;73.65;100219.22;24497;1319;3029725;-64
2022/11/27 13:16:55;;;;;;;4.40;2.20;;;;;;;6.77;72.82;100219.00;24559;1325;3052669;-70
2022/11/27 13:19:35;;;;;;;5.20;2.80;;;;;;;6.69;72.84;100222.73;24487;1331;3048997;-71
2022/11/27 13:22:05;;;;;;;5.10;2.50;;;;;;;6.52;72.89;100228.67;24538;1326;3069055;-68
2022/11/27 13:24:35;;;;;;;5.00;2.60;;;;;;;6.29;73.92;100238.08;24513;1334;3027954;-73
2022/11/27 13:27:24;;;;;;;3.70;2.60;;;;;;;6.13;74.17;100239.60;24514;1326;3027874;-67
2022/11/27 13:29:56;;;;;;;8.50;2.60;;;;;;;6.01;74.79;100241.01;24493;1323;3070227;-75
2022/11/27 13:32:35;;;;;;;4.20;2.70;;;;;;;5.89;75.69;100244.80;24494;1333;3027981;-70
2022/11/27 13:35:07;;;;;;;5.60;2.40;;;;;;;5.77;75.91;100248.11;24483;1333;3056393;-66
2022/11/27 13:37:40;;;;;;;6.20;2.60;;;;;;;5.71;76.03;100241.83;24498;1326;3052882;-67
2022/11/27 13:40:21;;;;;;;3.60;2.50;;;;;;;5.63;76.81;100242.58;24468;1324;3026287;-70
2022/11/27 13:42:54;;;;;;;4.40;2.60;;;;;;;5.59;76.74;100240.43;24528;1324;3056977;-65
2022/11/27 13:45:29;;;;;;;4.80;2.60;;;;;;;5.52;77.11;100245.14;24487;1323;3052492;-71
2022/11/27 13:47:59;;;;;;;4.00;1.70;;;;;;;5.51;77.43;100249.49;24470;1334;3028829;-74
2022/11/27 13:50:29;;;;;;;3.10;1.60;;;;;;;6.15;76.19;100248.58;24471;1343;3028882;-63
2022/11/27 13:53:03;;;;;;;6.00;2.70;;;;;;;6.73;73.16;100238.98;24537;1334;3028444;-71
2022/11/27 13:55:37;;;;;;;4.90;3.00;;;;;;;6.82;72.81;100240.95;24480;1334;3050323;-68
2022/11/27 13:58:08;;;;;;;5.00;2.60;;;;;;;6.69;72.87;100242.60;24506;1334;3068875;-76
2022/11/27 14:00:42;;;;;;;7.20;3.60;;;;;;;6.49;73.40;100242.00;24474;1327;3028185;-70
2022/11/27 14:03:27;;;;;;;7.10;3.30;;;;;;;6.34;73.95;100245.76;24455;1325;3049198;-73
2022/11/27 14:05:57;;;;;;;4.50;2.90;;;;;;;6.20;74.55;100249.48;24477;1333;3069557;-68
2022/11/27 14:08:28;;;;;;;6.50;3.40;;;;;;;6.12;74.98;100253.22;24512;1333;3028349;-66
2022/11/27 14:10:59;;;;;;;;;;;;;;;5.99;75.58;100256.69;24460;1334;3049231;-66
2022/11/27 14:13:51;;;;;;;5.40;3.00;;;;;;;5.84;76.19;100262.84;24475;1323;3025887;-73
2022/11/27 14:16:33;;;;;;;6.10;3.80;;;;;;;5.78;76.48;100269.29;24449;1340;3052103;-69
2022/11/27 14:19:05;;;;;;;6.90;4.20;;;;;;;5.74;76.47;100265.91;24479;1334;3056816;-72
2022/11/27 14:21:41;;;;;;;6.20;4.20;;;;;;;5.63;77.30;100264.66;24493;1333;3027055;-71
2022/11/27 14:24:35;;;;;;;6.70;4.10;;;;;;;5.61;77.21;100264.52;24523;1334;3053077;-69
2022/11/27 14:27:30;;;;;;;6.70;2.70;;;;;;;5.62;77.11;100257.73;24503;1323;3050373;-70
2022/11/27 14:30:27;;;;;;;4.00;2.80;;;;;;;6.34;75.27;100254.12;24486;1334;3051645;-69
2022/11/27 14:33:23;;;;;;;5.50;3.50;;;;;;;6.87;72.66;100253.13;24467;1334;3051262;-64
2022/11/27 14:36:00;;;;;;;7.60;4.30;;;;;;;6.85;72.82;100257.73;24471;1326;3025484;-70
2022/11/27 14:38:32;;;;;;;7.40;4.80;;;;;;;6.64;73.32;100263.27;24546;1337;3049897;-67
2022/11/27 14:41:09;;;;;;;6.60;3.60;;;;;;;6.47;73.72;100266.61;24478;1333;3026284;-65
2022/11/27 14:43:40;;;;;;;6.20;4.10;;;;;;;6.39;74.56;100267.70;24550;1331;3052818;-76
2022/11/27 14:46:17;;;;;;;6.70;3.70;;;;;;;6.21;74.79;100266.01;24557;1323;3028779;-74
2022/11/27 14:48:55;;;;;;;7.70;3.90;;;;;;;6.11;75.67;100270.11;24545;1331;3056498;-65
2022/11/27 14:51:25;;;;;;;6.00;3.30;;;;;;;6.05;75.53;100274.12;24558;1317;3052860;-73
2022/11/27 14:53:59;;;;;;;8.00;4.00;;;;;;;5.88;75.96;100274.02;24569;1331;3026480;-70
2022/11/27 14:56:32;;;;;;;5.70;3.70;;;;;;;5.76;76.66;100279.41;24551;1324;3050407;-69
2022/11/27 14:59:01;;;;;;;7.90;4.20;;;;;;;5.70;76.93;100281.51;24491;1331;3052939;-72
2022/11/27 15:01:32;;;;;;;7.50;4.30;;;;;;;5.68;77.04;100281.02;24548;1326;3026242;-70
2022/11/27 15:04:06;;;;;;;7.90;4.50;;;;;;;5.57;77.42;100286.71;24546;1333;3050994;-78
2022/11/27 15:07:00;;;;;;;6.50;2.80;;;;;;;5.64;78.04;100284.10;24518;1317;3053253;-70
2022/11/27 15:09:56;;;;;;;6.30;3.10;;;;;;;6.48;75.62;100276.29;24500;1326;3049267;-69
2022/11/27 15:12:30;;;;;;;5.50;3.70;;;;;;;7.01;73.05;100273.77;24467;1333;3025032;-66
2022/11/27 15:15:05;;;;;;;5.70;4.10;;;;;;;6.97;71.98;100273.91;24483;1332;3049622;-72
2022/11/27 15:17:37;;;;;;;7.50;4.20;;;;;;;6.82;72.72;100272.44;24448;1334;3057388;-71
2022/11/27 15:20:12;;;;;;;8.30;4.60;;;;;;;6.63;73.26;100274.46;24499;1333;3025639;-77
2022/11/27 15:22:57;;;;;;;9.10;4.80;;;;;;;6.52;73.75;100277.94;24461;1333;3053587;-71
2022/11/27 15:25:28;;;;;;;7.70;4.50;;;;;;;6.41;74.01;100278.63;24425;1332;3050449;-74
2022/11/27 22:46:09;;;;;;;16.50;7.60;;;;;;;4.25;87.41;100413.35;30663;1335;3013396;-64